Time;durP1;ratioP1;P1;durP2;ratioP2;P2;SDS_P1;SDS_P2;PMS_P1;PMS_P2;Temp;Humidity;BMP_temperature;BMP_pressure;BME280_temperature;BME280_humidity;BME280_pressure;Samples;Min_cycle;Max_cycle;Signal;HPM_P1;HPM_P2
2022/07/18 00:02:15;;;;;;;13.73;12.87;;;22.60;9.00;;;;;;6118836;23;20441;-70
2022/07/18 00:04:41;;;;;;;13.20;12.60;;;22.60;8.80;;;;;;6125640;23;20452;-71
2022/07/18 00:07:14;;;;;;;14.63;13.93;;;22.50;8.80;;;;;;6158096;23;20482;-71
2022/07/18 00:09:41;;;;;;;13.90;13.30;;;22.50;8.60;;;;;;6191757;23;20418;-70
2022/07/18 00:12:08;;;;;;;13.97;13.47;;;22.50;8.40;;;;;;6192363;23;20907;-71
2022/07/18 00:14:35;;;;;;;13.37;12.87;;;22.50;8.40;;;;;;6190532;23;20415;-71
2022/07/18 00:17:05;;;;;;;14.20;13.43;;;22.40;8.60;;;;;;6191946;23;20422;-71
2022/07/18 00:19:31;;;;;;;14.27;13.67;;;22.40;8.60;;;;;;6190693;23;20896;-71
2022/07/18 00:21:57;;;;;;;14.03;13.43;;;22.40;8.90;;;;;;6191316;23;20458;-70
2022/07/18 00:24:23;;;;;;;13.40;12.90;;;22.40;9.10;;;;;;6207701;23;20414;-71
2022/07/18 00:26:49;;;;;;;14.43;13.83;;;22.40;9.30;;;;;;6163983;23;20436;-70
2022/07/18 00:29:15;;;;;;;13.77;13.27;;;22.30;9.10;;;;;;6185984;23;20645;-70
2022/07/18 00:31:41;;;;;;;14.33;13.60;;;22.40;9.10;;;;;;6196077;23;20507;-71
2022/07/18 00:34:06;;;;;;;14.17;13.37;;;22.40;9.20;;;;;;6194263;23;20198;-71
2022/07/18 00:36:32;;;;;;;13.73;13.23;;;22.40;9.30;;;;;;6219772;23;20329;-71
2022/07/18 00:39:06;;;;;;;14.17;13.57;;;22.30;9.30;;;;;;6195582;23;20404;-71
2022/07/18 00:41:32;;;;;;;14.27;13.53;;;22.30;9.20;;;;;;6195236;23;20194;-71
2022/07/18 00:43:58;;;;;;;13.50;12.80;;;22.30;9.40;;;;;;6220264;23;20428;-70
2022/07/18 00:46:28;;;;;;;13.43;12.93;;;22.20;9.40;;;;;;6194830;23;20592;-71
2022/07/18 00:48:54;;;;;;;13.50;13.00;;;22.10;9.40;;;;;;6137067;23;20196;-71
2022/07/18 00:51:21;;;;;;;13.37;12.77;;;21.90;9.60;;;;;;6198979;23;20419;-71
2022/07/18 00:53:49;;;;;;;13.83;13.33;;;21.90;9.80;;;;;;6132194;23;20428;-70
2022/07/18 00:56:20;;;;;;;13.27;12.67;;;22.00;9.70;;;;;;6180730;23;20429;-71
2022/07/18 00:58:52;;;;;;;13.47;12.87;;;22.00;9.70;;;;;;6191396;23;20962;-71
2022/07/18 01:01:45;;;;;;;13.30;12.80;;;22.00;9.40;;;;;;6186267;23;21133;-71
2022/07/18 01:04:23;;;;;;;13.67;13.10;;;22.10;9.20;;;;;;6189381;23;20415;-70
2022/07/18 01:07:19;;;;;;;13.70;13.20;;;22.10;8.80;;;;;;6187954;23;20429;-71
2022/07/18 01:09:45;;;;;;;13.60;13.10;;;22.10;8.50;;;;;;6211626;23;20426;-71
2022/07/18 01:12:11;;;;;;;13.37;12.63;;;22.10;8.40;;;;;;6174255;23;20938;-71
2022/07/18 01:14:37;;;;;;;13.67;12.97;;;22.10;8.50;;;;;;6164967;23;20203;-71
2022/07/18 01:17:22;;;;;;;13.63;12.90;;;22.10;8.30;;;;;;6175494;23;20631;-71
2022/07/18 01:19:48;;;;;;;13.50;12.90;;;22.00;8.20;;;;;;6188702;23;20506;-71
2022/07/18 01:22:16;;;;;;;12.97;12.37;;;22.00;8.50;;;;;;6186278;23;20486;-71
2022/07/18 01:24:42;;;;;;;13.67;13.17;;;21.90;8.50;;;;;;6189776;23;20195;-71
2022/07/18 01:27:14;;;;;;;14.03;13.53;;;21.90;8.80;;;;;;6155274;23;20427;-71
2022/07/18 01:29:40;;;;;;;13.70;13.20;;;22.00;9.00;;;;;;6193031;23;20601;-71
2022/07/18 01:32:08;;;;;;;13.20;12.70;;;21.90;9.20;;;;;;6189502;23;20407;-71
2022/07/18 01:34:34;;;;;;;13.83;13.33;;;21.80;9.90;;;;;;6180665;23;20403;-71
2022/07/18 01:37:01;;;;;;;13.80;13.20;;;21.80;9.90;;;;;;6193727;23;20506;-70
2022/07/18 01:39:27;;;;;;;14.70;14.20;;;21.80;9.90;;;;;;6198789;23;20926;-71
2022/07/18 01:42:00;;;;;;;13.80;13.23;;;21.90;10.00;;;;;;6193503;23;20947;-71
2022/07/18 01:44:27;;;;;;;14.03;13.43;;;21.90;10.00;;;;;;6191189;23;20402;-71
2022/07/18 01:46:53;;;;;;;13.70;13.10;;;21.90;10.00;;;;;;6194109;23;20509;-71
2022/07/18 01:49:31;;;;;;;13.60;13.00;;;21.80;10.10;;;;;;6188521;23;20443;-71
2022/07/18 01:51:58;;;;;;;14.23;13.63;;;21.80;10.30;;;;;;6180848;23;20998;-71
2022/07/18 01:54:29;;;;;;;13.90;13.30;;;21.80;10.20;;;;;;6177928;23;20407;-70
2022/07/18 01:56:58;;;;;;;13.70;13.20;;;21.80;10.30;;;;;;6192939;23;20439;-71
2022/07/18 01:59:24;;;;;;;14.30;13.70;;;21.80;10.60;;;;;;6188942;23;20450;-70
2022/07/18 02:01:51;;;;;;;13.90;13.40;;;21.70;10.90;;;;;;6184284;23;20425;-70
2022/07/18 02:04:17;;;;;;;14.37;13.83;;;21.60;11.00;;;;;;6194826;23;21055;-70
2022/07/18 02:06:43;;;;;;;14.53;14.03;;;21.70;10.80;;;;;;6192959;23;20411;-71
2022/07/18 02:11:55;;;;;;;14.30;13.70;;;21.60;10.80;;;;;;6177323;23;20202;-70
2022/07/18 02:14:27;;;;;;;13.57;13.07;;;21.60;11.00;;;;;;6188388;23;20419;-71
2022/07/18 02:16:53;;;;;;;13.30;12.80;;;21.60;11.10;;;;;;6191702;23;20202;-71
2022/07/18 02:19:18;;;;;;;13.13;12.63;;;21.50;11.60;;;;;;6182891;23;21799;-71
2022/07/18 02:21:44;;;;;;;12.67;12.27;;;21.50;11.70;;;;;;6205171;23;20250;-71
2022/07/18 02:24:10;;;;;;;13.40;12.90;;;21.50;11.70;;;;;;6191844;23;20200;-71
2022/07/18 02:26:45;;;;;;;14.30;13.60;;;21.60;11.70;;;;;;6169180;23;20200;-71
2022/07/18 02:29:11;;;;;;;13.70;13.17;;;21.50;11.70;;;;;;6201292;23;20414;-71
2022/07/18 02:31:36;;;;;;;13.87;13.20;;;21.50;11.70;;;;;;6194395;23;20808;-71
2022/07/18 02:34:09;;;;;;;14.30;13.70;;;21.40;11.90;;;;;;6192970;23;20508;-71
2022/07/18 02:36:36;;;;;;;14.03;13.43;;;21.50;11.90;;;;;;6190458;23;20204;-71
2022/07/18 02:39:03;;;;;;;13.40;12.90;;;21.50;11.90;;;;;;6190183;23;20454;-71
2022/07/18 02:41:29;;;;;;;14.67;13.60;;;21.40;12.00;;;;;;6191896;23;20430;-71
2022/07/18 02:43:54;;;;;;;14.27;13.70;;;21.30;12.00;;;;;;6187015;23;20744;-71
2022/07/18 02:46:32;;;;;;;14.13;13.50;;;21.20;12.30;;;;;;6193328;23;20198;-70
2022/07/18 02:48:58;;;;;;;14.67;14.07;;;21.20;12.30;;;;;;6189955;23;20879;-71
2022/07/18 02:51:23;;;;;;;14.70;14.07;;;21.00;12.00;;;;;;6191042;23;21149;-70
2022/07/18 02:54:15;;;;;;;14.60;14.00;;;21.10;12.10;;;;;;6194617;23;20333;-70
2022/07/18 02:56:44;;;;;;;15.17;14.47;;;21.20;12.10;;;;;;6173561;23;20640;-71
2022/07/18 02:59:10;;;;;;;14.40;13.83;;;21.20;13.10;;;;;;6193453;23;20437;-71
2022/07/18 03:01:48;;;;;;;14.40;13.90;;;21.10;13.10;;;;;;6190918;23;20435;-71
2022/07/18 03:04:31;;;;;;;15.50;14.53;;;21.00;13.20;;;;;;6187570;23;20526;-71
2022/07/18 03:06:56;;;;;;;15.03;14.43;;;21.10;13.30;;;;;;6177532;23;20417;-70
2022/07/18 03:09:32;;;;;;;14.93;14.40;;;21.20;13.50;;;;;;6175053;23;20413;-70
2022/07/18 03:11:58;;;;;;;16.00;15.30;;;21.20;13.40;;;;;;6190470;23;20202;-71
2022/07/18 03:14:24;;;;;;;15.70;14.90;;;21.10;13.70;;;;;;6188225;23;20418;-70
2022/07/18 03:16:50;;;;;;;16.33;15.30;;;21.20;13.10;;;;;;6189054;23;20437;-70
2022/07/18 03:19:18;;;;;;;15.30;14.70;;;21.20;12.90;;;;;;6160977;23;20458;-71
2022/07/18 03:21:47;;;;;;;14.53;13.77;;;21.10;13.20;;;;;;6191366;23;20506;-70
2022/07/18 03:24:13;;;;;;;14.73;14.10;;;21.00;13.40;;;;;;6182275;23;20447;-70
2022/07/18 03:26:40;;;;;;;14.93;14.33;;;20.90;13.70;;;;;;6191673;23;20426;-70
2022/07/18 03:29:06;;;;;;;14.43;13.93;;;20.80;13.60;;;;;;6188485;23;21171;-70
2022/07/18 03:31:32;;;;;;;15.70;15.10;;;20.80;13.70;;;;;;6191850;23;20785;-70
2022/07/18 03:34:07;;;;;;;16.20;15.57;;;20.90;13.70;;;;;;6145814;23;20437;-70
2022/07/18 03:36:32;;;;;;;16.00;15.20;;;20.80;13.80;;;;;;6157276;23;20449;-71
2022/07/18 03:38:58;;;;;;;16.63;15.83;;;20.80;14.10;;;;;;6193409;23;20437;-71
2022/07/18 03:41:24;;;;;;;15.90;15.20;;;20.80;14.40;;;;;;6189797;23;20257;-71
2022/07/18 03:43:50;;;;;;;15.87;15.20;;;20.70;14.20;;;;;;6193465;23;20772;-71
2022/07/18 03:46:16;;;;;;;16.23;15.33;;;20.80;13.60;;;;;;6197522;23;20225;-70
2022/07/18 03:48:45;;;;;;;14.90;14.30;;;20.60;13.70;;;;;;6191424;23;20976;-71
2022/07/18 03:51:11;;;;;;;16.87;16.03;;;20.60;14.20;;;;;;6190238;23;20521;-70
2022/07/18 03:53:46;;;;;;;15.67;14.83;;;20.60;14.50;;;;;;6188474;23;20422;-70
2022/07/18 03:56:14;;;;;;;16.90;15.90;;;20.60;14.30;;;;;;6188918;23;20758;-71
2022/07/18 03:58:41;;;;;;;16.00;15.50;;;20.60;14.30;;;;;;6191957;23;20908;-70
2022/07/18 04:01:06;;;;;;;16.90;16.13;;;20.60;14.20;;;;;;6191629;23;20861;-70
2022/07/18 04:03:32;;;;;;;16.63;16.03;;;20.60;13.90;;;;;;6190599;23;20776;-71
2022/07/18 04:05:59;;;;;;;16.50;15.90;;;20.60;13.50;;;;;;6193711;23;20199;-70
2022/07/18 04:08:25;;;;;;;17.20;16.50;;;20.70;13.60;;;;;;6189648;23;20419;-71
2022/07/18 04:10:51;;;;;;;17.60;16.70;;;20.70;13.60;;;;;;6193394;23;20939;-70
2022/07/18 04:13:17;;;;;;;16.20;15.30;;;20.70;13.60;;;;;;6177108;23;20634;-71
2022/07/18 04:15:43;;;;;;;15.80;15.10;;;20.20;13.20;;;;;;6192858;23;20206;-70
2022/07/18 04:18:18;;;;;;;16.10;15.40;;;19.80;14.00;;;;;;6188072;23;20571;-70
2022/07/18 04:20:44;;;;;;;17.17;16.30;;;19.70;14.50;;;;;;6188654;23;21004;-70
2022/07/18 04:23:10;;;;;;;15.60;14.90;;;19.50;14.80;;;;;;6189766;23;20431;-71
2022/07/18 04:25:41;;;;;;;16.67;15.57;;;19.60;14.90;;;;;;6192818;23;20192;-70
2022/07/18 04:28:10;;;;;;;16.47;15.60;;;19.40;15.20;;;;;;6159943;23;20421;-70
2022/07/18 04:30:40;;;;;;;15.93;15.33;;;19.20;15.50;;;;;;6189689;23;20406;-71
2022/07/18 04:33:07;;;;;;;16.07;15.37;;;19.60;15.30;;;;;;6191894;23;20422;-71
2022/07/18 04:35:42;;;;;;;16.20;15.60;;;19.90;14.70;;;;;;6188224;23;20787;-71
2022/07/18 04:38:10;;;;;;;14.73;14.23;;;20.10;14.70;;;;;;6205171;23;20758;-71
2022/07/18 04:40:58;;;;;;;;;;;;;;;;;;;;;
2022/07/18 04:43:27;;;;;;;16.97;16.20;;;20.30;14.90;;;;;;6174087;23;20417;-71
2022/07/18 04:45:52;;;;;;;17.50;16.70;;;20.40;15.10;;;;;;6192304;23;20426;-71
2022/07/18 04:48:18;;;;;;;17.80;16.83;;;20.50;15.10;;;;;;6194270;23;20410;-71
2022/07/18 04:50:44;;;;;;;16.73;15.67;;;20.50;15.30;;;;;;6191717;23;20228;-71
2022/07/18 04:53:16;;;;;;;17.03;16.33;;;20.30;15.50;;;;;;6178303;23;20219;-71
2022/07/18 04:55:42;;;;;;;17.80;16.90;;;20.50;15.70;;;;;;6186880;23;20415;-71
2022/07/18 04:58:25;;;;;;;16.50;15.90;;;20.60;14.60;;;;;;6160271;23;20438;-71
2022/07/18 05:00:51;;;;;;;17.77;16.97;;;20.60;14.90;;;;;;6174971;23;20407;-71
2022/07/18 05:03:17;;;;;;;17.87;17.17;;;20.40;15.40;;;;;;6192681;23;20415;-71
2022/07/18 05:05:43;;;;;;;18.20;17.30;;;20.10;16.40;;;;;;6192580;23;20929;-71
2022/07/18 05:08:11;;;;;;;17.17;16.27;;;20.20;16.80;;;;;;6186271;23;20453;-71
2022/07/18 05:10:44;;;;;;;17.40;16.60;;;20.40;16.90;;;;;;6191301;23;20192;-71
2022/07/18 05:13:10;;;;;;;17.40;16.80;;;20.50;16.80;;;;;;6192472;23;20427;-71
2022/07/18 05:15:38;;;;;;;18.47;17.57;;;20.60;16.90;;;;;;6164263;23;20913;-71
2022/07/18 05:18:07;;;;;;;18.43;17.50;;;20.40;16.70;;;;;;6172112;23;20199;-71
2022/07/18 05:20:33;;;;;;;17.27;16.50;;;20.50;16.80;;;;;;6190085;23;20422;-71
2022/07/18 05:22:59;;;;;;;16.70;16.10;;;20.60;16.30;;;;;;6197252;23;20454;-71
2022/07/18 05:25:25;;;;;;;17.13;16.23;;;20.60;15.10;;;;;;6193265;23;20234;-71
2022/07/18 05:27:51;;;;;;;17.50;16.70;;;20.20;15.40;;;;;;6193737;23;20422;-71
2022/07/18 05:30:18;;;;;;;17.97;16.73;;;20.00;15.70;;;;;;6188370;23;20454;-71
2022/07/18 05:32:47;;;;;;;17.70;17.00;;;20.20;15.50;;;;;;6188322;23;20410;-72
2022/07/18 05:35:58;;;;;;;17.60;16.70;;;20.40;15.40;;;;;;6184638;23;20411;-71
2022/07/18 05:38:01;;;;;;;18.13;17.43;;;20.60;15.50;;;;;;6171121;23;20997;-71
2022/07/18 05:40:39;;;;;;;16.70;16.00;;;20.70;15.00;;;;;;6197568;23;20410;-72
2022/07/18 05:43:05;;;;;;;18.50;17.60;;;20.80;15.10;;;;;;6193350;23;20441;-72
2022/07/18 05:45:31;;;;;;;17.00;16.13;;;20.90;14.80;;;;;;6193935;23;21480;-71
2022/07/18 05:47:57;;;;;;;16.73;15.93;;;20.50;15.40;;;;;;6182371;23;20191;-71
2022/07/18 05:50:24;;;;;;;17.20;16.40;;;20.30;16.60;;;;;;6216805;23;20469;-71
2022/07/18 05:52:51;;;;;;;17.43;16.63;;;20.30;16.10;;;;;;6196644;23;21194;-71
2022/07/18 05:55:23;;;;;;;16.93;16.13;;;20.60;16.10;;;;;;6192301;23;20442;-71
2022/07/18 05:57:49;;;;;;;17.43;16.53;;;20.70;15.80;;;;;;6190247;23;20844;-71
2022/07/18 06:00:19;;;;;;;18.43;17.10;;;20.60;16.20;;;;;;6191580;23;20540;-71
2022/07/18 06:02:50;;;;;;;18.77;17.57;;;20.60;16.60;;;;;;6129013;23;20422;-71
2022/07/18 06:05:38;;;;;;;18.63;17.83;;;20.60;16.50;;;;;;6179274;23;20419;-71
2022/07/18 06:08:05;;;;;;;18.67;17.87;;;20.80;16.60;;;;;;6191283;23;20991;-71
2022/07/18 06:10:30;;;;;;;18.50;17.70;;;21.00;16.30;;;;;;6194531;23;20422;-71
2022/07/18 06:12:59;;;;;;;19.57;18.10;;;21.10;16.10;;;;;;6193634;23;20418;-71
2022/07/18 06:15:25;;;;;;;18.43;17.50;;;21.20;16.30;;;;;;6188103;23;20195;-71
2022/07/18 06:18:04;;;;;;;19.03;17.90;;;21.00;16.40;;;;;;6190506;23;20792;-72
2022/07/18 06:20:48;;;;;;;20.53;19.43;;;20.90;17.00;;;;;;6165317;23;20431;-71
2022/07/18 06:23:23;;;;;;;18.57;17.67;;;21.00;17.40;;;;;;6167027;23;20943;-71
2022/07/18 06:25:49;;;;;;;20.33;19.07;;;21.10;17.20;;;;;;6166546;23;20458;-72
2022/07/18 06:28:14;;;;;;;19.90;19.10;;;21.20;17.70;;;;;;6187079;23;20464;-72
2022/07/18 06:30:40;;;;;;;17.87;17.07;;;21.40;17.00;;;;;;6194874;23;20196;-72
2022/07/18 06:33:07;;;;;;;18.80;17.63;;;21.40;17.00;;;;;;6194047;23;20930;-72
2022/07/18 06:35:34;;;;;;;18.17;17.17;;;21.40;16.90;;;;;;6191606;23;20196;-72
2022/07/18 06:37:59;;;;;;;19.07;17.77;;;21.50;17.20;;;;;;6191625;23;20438;-72
2022/07/18 06:40:26;;;;;;;18.07;16.90;;;21.40;17.20;;;;;;6186688;23;20493;-71
2022/07/18 06:42:52;;;;;;;18.67;17.70;;;21.50;17.30;;;;;;6191915;23;20196;-71
2022/07/18 06:45:18;;;;;;;18.13;17.20;;;21.50;17.40;;;;;;6191815;23;20415;-72
2022/07/18 06:47:44;;;;;;;18.37;17.23;;;21.60;17.00;;;;;;6193533;23;20422;-72
2022/07/18 06:50:12;;;;;;;18.07;17.20;;;21.70;16.80;;;;;;6193010;23;22071;-72
2022/07/18 06:53:07;;;;;;;19.47;18.27;;;21.80;17.00;;;;;;6177169;23;20432;-72
2022/07/18 06:55:33;;;;;;;19.13;17.80;;;21.80;16.90;;;;;;6196360;23;20426;-73
2022/07/18 06:57:59;;;;;;;19.37;18.30;;;21.80;17.30;;;;;;6169224;23;20426;-72
2022/07/18 07:00:26;;;;;;;18.77;17.93;;;21.80;17.00;;;;;;6196019;23;20199;-73
2022/07/18 07:02:52;;;;;;;18.83;17.87;;;21.90;16.90;;;;;;6194567;23;20196;-71
2022/07/18 07:05:20;;;;;;;19.13;18.23;;;22.00;17.00;;;;;;6193900;23;20438;-72
2022/07/18 07:07:46;;;;;;;19.20;18.27;;;22.00;16.70;;;;;;6167291;23;20949;-73
2022/07/18 07:10:19;;;;;;;20.30;19.10;;;22.20;17.00;;;;;;6134444;23;20423;-72
2022/07/18 07:12:50;;;;;;;19.90;18.77;;;22.30;16.50;;;;;;6194203;23;20203;-72
2022/07/18 07:15:26;;;;;;;19.53;18.50;;;22.50;16.20;;;;;;6220030;23;20505;-72
2022/07/18 07:17:52;;;;;;;19.53;18.53;;;22.50;16.30;;;;;;6194330;23;20840;-72
2022/07/18 07:20:20;;;;;;;20.87;19.20;;;22.50;16.40;;;;;;6196135;23;20414;-72
2022/07/18 07:22:52;;;;;;;19.27;18.10;;;22.70;16.30;;;;;;6196699;23;20235;-72
2022/07/18 07:25:27;;;;;;;20.10;19.10;;;22.90;15.90;;;;;;6196817;23;20474;-73
2022/07/18 07:27:54;;;;;;;18.87;18.07;;;22.90;16.00;;;;;;6220836;23;20758;-72
2022/07/18 07:30:20;;;;;;;19.17;18.13;;;22.90;16.20;;;;;;6195980;23;20464;-72
2022/07/18 07:32:47;;;;;;;19.77;18.77;;;22.90;15.90;;;;;;6197050;23;20902;-72
2022/07/18 07:35:15;;;;;;;20.00;19.03;;;22.90;15.80;;;;;;6197145;23;20414;-73
2022/07/18 07:37:49;;;;;;;19.23;18.10;;;23.10;15.30;;;;;;6196714;23;20411;-72
2022/07/18 07:40:15;;;;;;;19.07;18.17;;;23.20;15.30;;;;;;6198244;23;20962;-72
2022/07/18 07:42:45;;;;;;;18.83;17.93;;;23.30;15.20;;;;;;6201259;23;20399;-70
2022/07/18 07:45:13;;;;;;;19.80;19.00;;;23.30;14.70;;;;;;6221874;23;20441;-72
2022/07/18 07:47:39;;;;;;;19.40;18.40;;;23.50;14.90;;;;;;6194002;23;20407;-72
2022/07/18 07:50:07;;;;;;;18.53;17.73;;;23.60;15.00;;;;;;6195548;23;20411;-72
2022/07/18 07:52:34;;;;;;;18.80;17.90;;;23.70;14.60;;;;;;6196458;23;20451;-72
2022/07/18 07:54:59;;;;;;;18.57;17.20;;;23.60;14.90;;;;;;6204395;23;20411;-71
2022/07/18 07:57:25;;;;;;;19.17;18.30;;;23.70;14.50;;;;;;6161155;23;20748;-72
2022/07/18 08:00:24;;;;;;;18.43;17.63;;;23.90;14.00;;;;;;6197429;23;20200;-72
2022/07/18 08:02:54;;;;;;;18.53;17.63;;;23.80;14.30;;;;;;6188291;23;20900;-72
2022/07/18 08:05:24;;;;;;;18.83;18.03;;;24.00;13.20;;;;;;6182911;23;20410;-72
2022/07/18 08:07:50;;;;;;;18.27;17.43;;;24.20;12.90;;;;;;6194350;23;20691;-72
2022/07/18 08:10:17;;;;;;;17.10;16.30;;;24.10;13.00;;;;;;6197483;23;20430;-72
2022/07/18 08:12:43;;;;;;;17.23;16.50;;;24.40;12.80;;;;;;6186079;23;20422;-72
2022/07/18 08:15:10;;;;;;;17.97;16.93;;;24.50;12.30;;;;;;6197506;23;21149;-72
2022/07/18 08:17:35;;;;;;;17.90;16.80;;;24.50;12.60;;;;;;6167645;23;20925;-72
2022/07/18 08:20:02;;;;;;;19.00;18.10;;;24.60;12.30;;;;;;6185855;23;20406;-72
2022/07/18 08:22:27;;;;;;;18.40;17.53;;;24.90;11.90;;;;;;6194690;23;20198;-72
2022/07/18 08:24:53;;;;;;;18.63;17.83;;;25.00;11.70;;;;;;6195073;23;20407;-72
2022/07/18 08:27:22;;;;;;;18.17;17.20;;;24.90;12.00;;;;;;6195755;23;20188;-72
2022/07/18 08:30:11;;;;;;;18.00;17.17;;;25.00;12.00;;;;;;6195741;23;20192;-72
2022/07/18 08:32:52;;;;;;;17.40;16.50;;;25.10;12.00;;;;;;6173044;23;20429;-72
2022/07/18 08:35:18;;;;;;;17.83;16.70;;;25.00;11.70;;;;;;6198840;23;20553;-72
2022/07/18 08:37:44;;;;;;;17.13;16.40;;;25.00;12.00;;;;;;6195787;23;20618;-72
2022/07/18 08:40:11;;;;;;;18.33;17.07;;;24.90;12.00;;;;;;6181050;23;20418;-72
2022/07/18 08:42:37;;;;;;;18.73;17.73;;;25.30;11.80;;;;;;6197194;23;20421;-72
2022/07/18 08:45:04;;;;;;;17.77;17.03;;;25.60;11.00;;;;;;6200014;23;20403;-72
2022/07/18 08:47:34;;;;;;;17.17;16.30;;;25.80;10.40;;;;;;6195847;23;20514;-72
2022/07/18 08:50:01;;;;;;;17.50;16.70;;;25.80;10.50;;;;;;6194664;23;20910;-73
2022/07/18 08:52:28;;;;;;;17.13;16.03;;;25.90;10.00;;;;;;6196059;23;20414;-72
2022/07/18 08:54:56;;;;;;;18.67;17.70;;;25.80;10.20;;;;;;6195645;23;20408;-72
2022/07/18 08:57:22;;;;;;;18.20;17.20;;;26.20;10.00;;;;;;6194779;23;20407;-72
2022/07/18 08:59:48;;;;;;;19.40;18.50;;;26.00;10.20;;;;;;6198325;23;20434;-72
2022/07/18 09:02:14;;;;;;;18.47;17.50;;;25.80;10.60;;;;;;6196309;23;20457;-72
2022/07/18 09:04:42;;;;;;;17.97;17.03;;;25.60;10.90;;;;;;6194527;23;20815;-72
2022/07/18 09:07:12;;;;;;;19.20;18.20;;;25.50;10.20;;;;;;6194932;23;20400;-72
2022/07/18 09:09:38;;;;;;;17.97;17.07;;;25.70;10.20;;;;;;6195379;23;20469;-72
2022/07/18 09:12:17;;;;;;;18.30;17.17;;;25.60;9.30;;;;;;6195272;23;20927;-72
2022/07/18 09:14:44;;;;;;;17.53;16.63;;;25.80;10.00;;;;;;6197071;23;20895;-71
2022/07/18 09:17:14;;;;;;;18.17;17.27;;;26.00;9.10;;;;;;6197824;23;20725;-72
2022/07/18 09:19:55;;;;;;;18.70;17.47;;;26.60;8.40;;;;;;6196803;23;20454;-72
2022/07/18 09:22:23;;;;;;;17.97;17.17;;;26.70;8.40;;;;;;6218735;23;20873;-72
2022/07/18 09:25:11;;;;;;;17.63;16.83;;;26.50;8.30;;;;;;6193931;23;20423;-72
2022/07/18 09:27:43;;;;;;;17.73;17.03;;;26.80;7.50;;;;;;6194996;23;20911;-72
2022/07/18 09:30:17;;;;;;;18.10;17.27;;;26.70;8.20;;;;;;6195636;23;20427;-72
2022/07/18 09:32:48;;;;;;;17.00;16.20;;;26.90;7.10;;;;;;6193464;23;20820;-72
2022/07/18 09:35:26;;;;;;;17.40;16.60;;;27.40;6.30;;;;;;6194395;23;20949;-72
2022/07/18 09:37:55;;;;;;;18.10;17.20;;;27.20;6.80;;;;;;6195917;23;20439;-72
2022/07/18 09:40:24;;;;;;;17.80;16.90;;;26.80;7.00;;;;;;6195750;23;20416;-72
2022/07/18 09:42:56;;;;;;;17.37;16.67;;;26.90;6.60;;;;;;6191438;23;20413;-72
2022/07/18 09:45:37;;;;;;;17.37;16.77;;;27.20;5.80;;;;;;6197383;23;20469;-72
2022/07/18 09:51:23;;;;;;;18.03;17.33;;;27.20;5.80;;;;;;6196845;23;20385;-72
2022/07/18 09:53:49;;;;;;;18.60;17.60;;;27.30;5.20;;;;;;6166261;23;20493;-72
2022/07/18 09:56:23;;;;;;;17.10;16.50;;;27.90;3.90;;;;;;6193680;23;20923;-72
2022/07/18 09:58:54;;;;;;;17.77;17.17;;;27.80;3.90;;;;;;6183581;23;20285;-72
2022/07/18 10:01:22;;;;;;;17.63;16.93;;;27.90;3.20;;;;;;6194996;23;20776;-72
2022/07/18 10:03:49;;;;;;;16.97;16.27;;;28.10;3.00;;;;;;6195404;23;20450;-72
2022/07/18 10:06:18;;;;;;;16.80;16.03;;;28.60;2.40;;;;;;6186985;23;20422;-72
2022/07/18 10:08:44;;;;;;;17.43;16.73;;;28.90;1.80;;;;;;6193992;23;20774;-72
2022/07/18 10:11:10;;;;;;;19.93;18.93;;;29.10;1.90;;;;;;6194091;23;20419;-72
2022/07/18 10:13:37;;;;;;;17.10;16.50;;;29.50;1.00;;;;;;6194894;23;20422;-72
2022/07/18 10:16:04;;;;;;;17.43;16.43;;;29.50;1.00;;;;;;6196322;23;20426;-72
2022/07/18 10:18:33;;;;;;;16.90;16.20;;;29.40;1.00;;;;;;6194313;23;20433;-71
2022/07/18 10:21:12;;;;;;;16.93;16.33;;;29.20;1.00;;;;;;6192715;23;20502;-72
2022/07/18 10:23:38;;;;;;;17.43;16.73;;;29.10;1.40;;;;;;6192876;23;20437;-73
2022/07/18 10:26:26;;;;;;;17.03;16.33;;;29.00;1.60;;;;;;6196790;23;20751;-74
2022/07/18 10:28:55;;;;;;;16.80;16.20;;;29.10;1.90;;;;;;6198679;23;20421;-73
2022/07/18 10:31:28;;;;;;;16.97;16.23;;;29.20;1.00;;;;;;6202339;23;20410;-73
2022/07/18 10:34:09;;;;;;;17.60;16.90;;;29.50;1.00;;;;;;6199903;23;20406;-73
2022/07/18 10:36:36;;;;;;;17.40;16.70;;;29.50;1.00;;;;;;6200695;23;20410;-73
2022/07/18 10:39:10;;;;;;;16.80;16.20;;;29.30;1.00;;;;;;6203531;23;20422;-74
2022/07/18 10:41:39;;;;;;;17.70;16.90;;;29.30;1.00;;;;;;6202155;23;20422;-73
2022/07/18 10:44:23;;;;;;;18.27;17.47;;;29.30;1.00;;;;;;6198941;23;20494;-74
2022/07/18 10:47:19;;;;;;;18.10;16.90;;;29.60;1.00;;;;;;6200168;23;20477;-73
2022/07/18 10:49:48;;;;;;;16.70;15.90;;;29.80;1.00;;;;;;6208185;23;20379;-73
2022/07/18 10:52:26;;;;;;;18.60;17.60;;;29.80;1.00;;;;;;6202600;23;20421;-73
2022/07/18 10:57:40;;;;;;;17.60;16.90;;;29.80;1.00;;;;;;6196326;23;20406;-74
2022/07/18 11:00:15;;;;;;;16.80;16.20;;;29.40;1.00;;;;;;6200330;23;20410;-73
2022/07/18 11:02:45;;;;;;;17.20;16.60;;;29.30;1.00;;;;;;6201511;23;20495;-73
2022/07/18 11:05:26;;;;;;;18.57;17.77;;;29.00;1.00;;;;;;6185493;23;20414;-74
2022/07/18 11:07:58;;;;;;;17.63;16.93;;;28.90;1.00;;;;;;6199071;23;20891;-73
2022/07/18 11:10:46;;;;;;;16.93;16.33;;;28.90;1.00;;;;;;6203285;23;20418;-73
2022/07/18 11:13:34;;;;;;;17.77;16.97;;;29.30;1.00;;;;;;6196575;23;20426;-74
2022/07/18 11:16:09;;;;;;;17.30;16.60;;;29.90;1.00;;;;;;6196346;23;20465;-74
2022/07/18 11:18:44;;;;;;;18.10;17.40;;;30.70;1.00;;;;;;6194669;23;20427;-74
2022/07/18 11:21:28;;;;;;;16.83;16.03;;;30.60;1.00;;;;;;6203857;23;20425;-73
2022/07/18 11:24:02;;;;;;;17.00;16.40;;;30.80;1.00;;;;;;6200355;23;20421;-74
2022/07/18 11:26:29;;;;;;;17.83;17.03;;;30.70;1.00;;;;;;6194259;23;20414;-74
2022/07/18 11:29:05;;;;;;;17.63;16.83;;;30.50;1.00;;;;;;6197728;23;20422;-73
2022/07/18 11:31:49;;;;;;;17.10;16.50;;;30.60;1.00;;;;;;6184948;23;20424;-74
2022/07/18 11:34:15;;;;;;;17.07;16.47;;;30.70;1.00;;;;;;6202060;23;20458;-73
2022/07/18 11:36:43;;;;;;;16.77;16.17;;;30.70;1.00;;;;;;6197700;23;20419;-73
2022/07/18 11:39:13;;;;;;;16.03;15.53;;;30.30;1.00;;;;;;6198398;23;20760;-74
2022/07/18 11:41:41;;;;;;;16.70;16.10;;;30.30;1.00;;;;;;6195787;23;20419;-73
2022/07/18 11:44:26;;;;;;;16.77;16.17;;;30.10;1.00;;;;;;6174152;23;20414;-73
2022/07/18 11:47:09;;;;;;;16.43;15.93;;;30.20;1.00;;;;;;6220993;23;20415;-73
2022/07/18 11:49:36;;;;;;;17.10;16.50;;;30.50;1.00;;;;;;6196570;23;20423;-74
2022/07/18 11:52:04;;;;;;;17.10;16.40;;;30.60;1.00;;;;;;6187170;23;20414;-73
2022/07/18 11:54:42;;;;;;;17.30;16.40;;;30.30;1.00;;;;;;6208580;23;20414;-73
2022/07/18 11:57:08;;;;;;;16.73;16.03;;;30.30;1.00;;;;;;6196879;23;20441;-73
2022/07/18 11:59:38;;;;;;;16.60;16.00;;;30.40;1.00;;;;;;6198735;23;20422;-74
2022/07/18 12:02:11;;;;;;;16.87;16.27;;;30.10;1.00;;;;;;6190114;23;20910;-73
2022/07/18 12:04:38;;;;;;;17.17;16.47;;;30.20;1.00;;;;;;6221309;23;20426;-74
2022/07/18 12:07:25;;;;;;;16.60;16.00;;;30.30;1.00;;;;;;6185782;23;20425;-73
2022/07/18 12:09:55;;;;;;;17.63;16.87;;;30.50;1.00;;;;;;6202445;23;20790;-74
2022/07/18 12:12:23;;;;;;;18.80;18.00;;;30.50;1.00;;;;;;6191565;23;20436;-73
2022/07/18 12:14:54;;;;;;;17.60;16.90;;;30.20;1.00;;;;;;6215419;23;20992;-73
2022/07/18 12:17:20;;;;;;;17.23;16.53;;;29.90;1.00;;;;;;6200272;23;20415;-74
2022/07/18 12:19:46;;;;;;;17.33;16.43;;;30.40;1.00;;;;;;6195357;23;20480;-73
2022/07/18 12:22:15;;;;;;;16.97;16.37;;;30.50;1.00;;;;;;6198273;23;20991;-73
2022/07/18 12:24:56;;;;;;;17.13;16.33;;;30.50;1.00;;;;;;6202679;23;20215;-73
2022/07/18 12:27:35;;;;;;;17.30;16.70;;;30.00;1.00;;;;;;6199430;23;20452;-73
2022/07/18 12:30:19;;;;;;;17.00;16.40;;;29.60;1.00;;;;;;6200326;23;20391;-74
2022/07/18 12:32:53;;;;;;;17.20;16.50;;;29.60;1.00;;;;;;6204983;23;20402;-73
2022/07/18 12:35:32;;;;;;;17.40;16.50;;;30.60;1.00;;;;;;6180107;23;20422;-73
2022/07/18 12:37:59;;;;;;;16.60;16.10;;;30.60;1.00;;;;;;6204266;23;20437;-73
2022/07/18 12:41:18;;;;;;;16.60;16.00;;;30.30;1.00;;;;;;6196999;23;20548;-73
2022/07/18 12:43:44;;;;;;;16.87;15.90;;;30.20;1.00;;;;;;6166909;23;20446;-74
2022/07/18 12:46:10;;;;;;;16.03;15.43;;;30.50;1.00;;;;;;6202332;23;20407;-73
2022/07/18 12:48:42;;;;;;;16.00;15.40;;;30.20;1.00;;;;;;6198327;23;20247;-74
2022/07/18 12:51:10;;;;;;;16.67;16.07;;;30.20;1.00;;;;;;6199422;23;20407;-74
2022/07/18 12:53:41;;;;;;;16.50;15.80;;;30.40;1.00;;;;;;6198324;23;20414;-73
2022/07/18 12:56:11;;;;;;;15.43;14.73;;;30.60;1.00;;;;;;6197421;23;20410;-74
2022/07/18 12:58:37;;;;;;;16.23;15.73;;;30.10;1.00;;;;;;6200894;23;20431;-74